createdAt,value
2018-01-20T00:01:49.847Z,13.62
2018-01-20T00:04:17.573Z,22.05
2018-01-20T00:06:44.969Z,17.20
2018-01-20T00:09:24.076Z,23.15
2018-01-20T00:12:06.341Z,18.55
2018-01-20T00:14:33.885Z,15.68
2018-01-20T00:17:01.349Z,13.73
2018-01-20T00:19:28.772Z,13.88
2018-01-20T00:21:56.261Z,13.48
2018-01-20T00:24:23.721Z,10.35
2018-01-20T00:26:51.148Z,20.05
2018-01-20T00:29:18.633Z,24.05
2018-01-20T00:31:46.191Z,8.80
2018-01-20T00:34:13.650Z,21.67
2018-01-20T00:36:41.284Z,21.12
2018-01-20T00:39:08.706Z,18.10
2018-01-20T00:41:36.334Z,8.00
2018-01-20T00:44:04.092Z,18.87
2018-01-20T00:46:31.549Z,25.45
2018-01-20T00:48:59.088Z,15.15
2018-01-20T00:51:26.662Z,13.05
2018-01-20T00:53:54.428Z,10.68
2018-01-20T00:56:21.829Z,12.70
2018-01-20T00:58:49.248Z,25.85
2018-01-20T01:01:16.917Z,10.95
2018-01-20T01:03:44.550Z,7.75
2018-01-20T01:06:11.969Z,9.57
2018-01-20T01:08:39.499Z,14.90
2018-01-20T01:11:06.924Z,12.13
2018-01-20T01:13:34.381Z,7.65
2018-01-20T01:16:01.873Z,17.12
2018-01-20T01:18:29.298Z,7.30
2018-01-20T01:20:56.787Z,9.63
2018-01-20T01:23:24.241Z,7.85
2018-01-20T01:25:51.712Z,6.35
2018-01-20T01:28:19.142Z,8.73
2018-01-20T01:30:46.713Z,4.85
2018-01-20T01:33:14.129Z,3.40
2018-01-20T01:35:41.625Z,3.55
2018-01-20T01:38:09.045Z,2.92
2018-01-20T01:40:36.462Z,2.10
2018-01-20T01:43:04.000Z,2.65
2018-01-20T01:45:31.427Z,3.12
2018-01-20T01:47:58.922Z,3.33
2018-01-20T01:50:26.349Z,2.35
2018-01-20T01:52:53.840Z,3.17
2018-01-20T01:55:21.266Z,3.08
2018-01-20T01:57:48.689Z,5.72
2018-01-20T02:00:16.870Z,8.02
2018-01-20T02:02:44.461Z,10.32
2018-01-20T02:05:11.876Z,8.48
2018-01-20T02:07:39.506Z,10.00
2018-01-20T02:10:06.929Z,5.68
2018-01-20T02:12:34.425Z,13.13
2018-01-20T02:15:01.881Z,12.00
2018-01-20T02:17:29.646Z,10.90
2018-01-20T02:19:57.102Z,11.60
2018-01-20T02:22:24.734Z,12.80
2018-01-20T02:24:52.325Z,16.87
2018-01-20T02:27:19.746Z,17.98
2018-01-20T02:29:47.243Z,12.70
2018-01-20T02:32:14.663Z,18.58
2018-01-20T02:34:42.094Z,10.60
2018-01-20T02:37:09.509Z,10.45
2018-01-20T02:39:36.937Z,12.65
2018-01-20T02:42:04.352Z,11.85
2018-01-20T02:44:31.880Z,16.08
2018-01-20T02:46:59.445Z,13.50
2018-01-20T02:49:26.872Z,18.02
2018-01-20T02:51:54.309Z,17.20
2018-01-20T02:54:21.734Z,21.87
2018-01-20T02:56:49.272Z,17.15
2018-01-20T02:59:16.747Z,16.00
2018-01-20T03:01:44.373Z,22.65
2018-01-20T03:04:11.961Z,13.20
2018-01-20T03:06:39.594Z,13.95
2018-01-20T03:09:07.176Z,15.63
2018-01-20T03:11:34.940Z,10.45
2018-01-20T03:14:02.705Z,12.25
2018-01-20T03:16:30.134Z,13.68
2018-01-20T03:18:57.631Z,14.98
2018-01-20T03:21:25.080Z,13.50
2018-01-20T03:23:52.508Z,15.48
2018-01-20T03:26:19.925Z,11.07
2018-01-20T03:28:47.356Z,15.52
2018-01-20T03:31:14.800Z,30.77
2018-01-20T03:33:42.276Z,16.02
2018-01-20T03:36:09.734Z,16.50
2018-01-20T03:38:37.285Z,24.83
2018-01-20T03:41:04.709Z,21.65
2018-01-20T03:43:32.128Z,23.98
2018-01-20T03:45:59.568Z,22.37
2018-01-20T03:48:26.988Z,21.65
2018-01-20T03:50:54.408Z,24.58
2018-01-20T03:53:22.041Z,31.90
2018-01-20T03:55:49.464Z,18.73
2018-01-20T03:58:16.889Z,22.42
2018-01-20T04:00:44.313Z,24.92
2018-01-20T04:03:11.801Z,21.52
2018-01-20T04:05:39.234Z,25.10
2018-01-20T04:10:49.284Z,24.77
2018-01-20T04:13:16.749Z,25.00
2018-01-20T04:15:44.522Z,17.67
2018-01-20T04:18:11.965Z,23.38
2018-01-20T04:20:39.437Z,25.20
2018-01-20T04:23:06.888Z,33.15
2018-01-20T04:25:34.325Z,30.48
2018-01-20T04:28:01.966Z,24.20
2018-01-20T04:30:30.168Z,24.08
2018-01-20T04:32:57.641Z,29.65
2018-01-20T04:35:25.107Z,27.27
2018-01-20T04:37:52.864Z,24.17
2018-01-20T04:40:20.330Z,34.80
2018-01-20T04:42:47.777Z,26.02
2018-01-20T04:45:15.200Z,21.35
2018-01-20T04:47:42.706Z,15.82
2018-01-20T04:50:10.139Z,17.67
2018-01-20T04:52:37.557Z,18.05
2018-01-20T04:55:04.990Z,20.33
2018-01-20T04:57:32.420Z,18.05
2018-01-20T04:59:59.988Z,18.58
2018-01-20T05:02:27.758Z,23.48
2018-01-20T05:04:55.512Z,37.78
2018-01-20T05:07:22.973Z,39.38
2018-01-20T05:09:50.437Z,24.42
2018-01-20T05:12:17.865Z,21.10
2018-01-20T05:14:45.348Z,34.80
2018-01-20T05:17:13.117Z,24.50
2018-01-20T05:19:40.745Z,27.48
2018-01-20T05:22:08.242Z,30.45
2018-01-20T05:24:36.432Z,21.12
2018-01-20T05:27:03.864Z,20.42
2018-01-20T05:29:31.293Z,28.02
2018-01-20T05:31:58.717Z,26.50
2018-01-20T05:34:26.237Z,22.95
2018-01-20T05:36:53.885Z,36.00
2018-01-20T05:39:21.312Z,23.08
2018-01-20T05:41:49.718Z,23.40
2018-01-20T05:44:17.301Z,25.12
2018-01-20T05:46:44.753Z,23.45
2018-01-20T05:49:12.525Z,25.88
2018-01-20T05:51:40.160Z,38.63
2018-01-20T05:54:07.619Z,30.20
2018-01-20T05:56:35.112Z,37.53
2018-01-20T05:59:02.556Z,28.90
2018-01-20T06:01:30.126Z,39.78
2018-01-20T06:03:57.572Z,22.48
2018-01-20T06:06:25.006Z,41.13
2018-01-20T06:08:52.503Z,26.85
2018-01-20T06:11:20.129Z,16.98
2018-01-20T06:13:47.644Z,29.85
2018-01-20T06:16:15.072Z,19.00
2018-01-20T06:18:42.532Z,22.70
2018-01-20T06:21:09.984Z,19.17
2018-01-20T06:23:37.431Z,32.15
2018-01-20T06:26:04.913Z,34.30
2018-01-20T06:28:32.366Z,20.70
2018-01-20T06:30:59.859Z,16.40
2018-01-20T06:33:28.041Z,17.42
2018-01-20T06:35:55.661Z,20.45
2018-01-20T06:38:23.219Z,17.20
2018-01-20T06:40:50.646Z,20.95
2018-01-20T06:43:18.066Z,13.50
2018-01-20T06:45:45.593Z,20.65
2018-01-20T06:48:13.012Z,15.90
2018-01-20T06:50:40.500Z,12.68
2018-01-20T06:53:07.966Z,22.10
2018-01-20T06:55:35.730Z,22.50
2018-01-20T06:58:03.362Z,14.10
2018-01-20T07:00:30.836Z,12.93
2018-01-20T07:02:58.404Z,16.92
2018-01-20T07:05:26.175Z,15.60
2018-01-20T07:07:53.801Z,14.40
2018-01-20T07:10:21.300Z,19.70
2018-01-20T07:12:49.300Z,16.35
2018-01-20T07:15:16.812Z,13.25
2018-01-20T07:17:44.276Z,15.13
2018-01-20T07:20:11.701Z,13.93
2018-01-20T07:22:39.918Z,19.52
2018-01-20T07:25:07.562Z,14.68
2018-01-20T07:27:34.968Z,13.13
2018-01-20T07:30:02.493Z,19.73
2018-01-20T07:32:30.045Z,23.10
2018-01-20T07:34:57.508Z,25.83
2018-01-20T07:37:25.158Z,13.00
2018-01-20T07:39:58.284Z,16.23
2018-01-20T07:42:25.894Z,19.62
2018-01-20T07:44:53.480Z,20.12
2018-01-20T07:47:20.911Z,17.98
2018-01-20T07:49:48.404Z,18.27
2018-01-20T07:52:15.830Z,12.80
2018-01-20T07:54:43.260Z,10.57
2018-01-20T07:57:10.772Z,11.05
2018-01-20T07:59:38.540Z,10.25
2018-01-20T08:02:06.173Z,25.67
2018-01-20T08:04:33.632Z,10.55
2018-01-20T08:07:01.222Z,18.23
2018-01-20T08:09:28.853Z,11.32
2018-01-20T08:11:56.344Z,11.18
2018-01-20T08:14:23.796Z,11.55
2018-01-20T08:16:51.266Z,10.75
2018-01-20T08:19:18.819Z,15.15
2018-01-20T08:21:46.241Z,15.23
2018-01-20T08:24:13.740Z,14.35
2018-01-20T08:26:41.189Z,9.00
2018-01-20T08:29:08.617Z,15.30
2018-01-20T08:31:36.057Z,17.15
2018-01-20T08:34:03.569Z,10.85
2018-01-20T08:36:31.010Z,9.02
2018-01-20T08:38:58.472Z,8.80
2018-01-20T08:41:25.933Z,6.43
2018-01-20T08:43:53.362Z,9.13
2018-01-20T08:46:20.781Z,10.20
2018-01-20T08:48:48.200Z,17.33
2018-01-20T08:51:15.669Z,7.40
2018-01-20T08:53:43.133Z,12.43
2018-01-20T08:56:10.680Z,12.63
2018-01-20T08:58:38.312Z,8.60
2018-01-20T09:01:05.910Z,8.05
2018-01-20T09:03:33.338Z,7.60
2018-01-20T09:06:00.766Z,11.38
2018-01-20T09:08:28.184Z,10.75
2018-01-20T09:10:55.604Z,7.82
2018-01-20T09:13:23.197Z,7.93
2018-01-20T09:15:50.662Z,13.10
2018-01-20T09:18:18.118Z,11.35
2018-01-20T09:20:45.578Z,12.95
2018-01-20T09:23:13.199Z,5.43
2018-01-20T09:25:40.802Z,10.57
2018-01-20T09:28:08.253Z,6.80
2018-01-20T09:30:35.677Z,11.48
2018-01-20T09:33:03.161Z,10.93
2018-01-20T09:35:30.585Z,11.93
2018-01-20T09:37:58.006Z,14.32
2018-01-20T09:40:25.430Z,15.88
2018-01-20T09:42:52.849Z,4.60
2018-01-20T09:45:21.075Z,7.03
2018-01-20T09:47:48.535Z,5.35
2018-01-20T09:50:16.288Z,7.40
2018-01-20T09:52:43.729Z,6.25
2018-01-20T09:55:11.144Z,4.75
2018-01-20T09:57:38.664Z,10.35
2018-01-20T10:00:06.129Z,4.12
2018-01-20T10:02:33.772Z,8.77
2018-01-20T10:05:01.350Z,6.43
2018-01-20T10:07:28.805Z,5.47
2018-01-20T10:09:56.355Z,7.82
2018-01-20T10:12:24.030Z,3.47
2018-01-20T10:14:51.661Z,15.27
2018-01-20T10:17:19.141Z,4.47
2018-01-20T10:19:46.714Z,12.48
2018-01-20T10:22:14.477Z,3.17
2018-01-20T10:24:41.901Z,8.75
2018-01-20T10:27:09.325Z,8.25
2018-01-20T10:29:36.859Z,8.48
2018-01-20T10:32:04.274Z,4.20
2018-01-20T10:34:31.693Z,7.47
2018-01-20T10:36:59.216Z,5.80
2018-01-20T10:39:26.640Z,7.07
2018-01-20T10:41:54.929Z,7.65
2018-01-20T10:44:22.415Z,3.80
2018-01-20T10:46:49.974Z,3.08
2018-01-20T10:49:17.609Z,3.50
2018-01-20T10:51:45.124Z,13.75
2018-01-20T10:54:12.657Z,12.23
2018-01-20T10:56:40.429Z,6.95
2018-01-20T10:59:08.187Z,12.50
2018-01-20T11:01:35.821Z,7.22
2018-01-20T11:04:03.404Z,3.87
2018-01-20T11:06:30.829Z,2.35
2018-01-20T11:08:58.257Z,6.57
2018-01-20T11:11:26.600Z,5.35
2018-01-20T11:13:54.064Z,4.82
2018-01-20T11:16:21.484Z,11.32
2018-01-20T11:18:48.918Z,2.55
2018-01-20T11:21:17.118Z,4.85
2018-01-20T11:23:44.544Z,4.70
2018-01-20T11:26:12.079Z,8.10
2018-01-20T11:28:39.711Z,2.50
2018-01-20T11:31:07.212Z,11.18
2018-01-20T11:33:34.632Z,7.78
2018-01-20T11:36:02.137Z,8.45
2018-01-20T11:38:29.566Z,5.28
2018-01-20T11:40:56.986Z,6.00
2018-01-20T11:43:24.581Z,6.90
2018-01-20T11:45:52.008Z,8.25
2018-01-20T11:48:19.433Z,8.35
2018-01-20T11:50:46.853Z,2.85
2018-01-20T11:53:14.318Z,7.70
2018-01-20T11:55:41.765Z,4.87
2018-01-20T11:58:09.198Z,1.87
2018-01-20T12:00:36.781Z,3.47
2018-01-20T12:03:04.209Z,3.37
2018-01-20T12:05:31.632Z,4.18
2018-01-20T12:07:59.058Z,8.63
2018-01-20T12:10:26.616Z,8.27
2018-01-20T12:12:54.073Z,2.78
2018-01-20T12:15:21.501Z,3.65
2018-01-20T12:17:48.921Z,4.37
2018-01-20T12:20:16.349Z,6.68
2018-01-20T12:22:43.832Z,4.25
2018-01-20T12:25:11.265Z,4.15
2018-01-20T12:27:38.722Z,5.22
2018-01-20T12:30:06.145Z,8.48
2018-01-20T12:32:33.645Z,2.45
2018-01-20T12:35:01.061Z,2.22
2018-01-20T12:37:28.548Z,1.92
2018-01-20T12:39:55.990Z,7.85
2018-01-20T12:42:23.436Z,7.40
2018-01-20T12:44:50.916Z,5.97
2018-01-20T12:47:18.389Z,3.42
2018-01-20T12:49:45.824Z,1.92
2018-01-20T12:52:13.273Z,49.20
2018-01-20T12:54:40.705Z,12.68
2018-01-20T12:57:08.935Z,21.65
2018-01-20T12:59:36.386Z,24.45
2018-01-20T13:02:04.028Z,3.47
2018-01-20T13:04:31.617Z,10.73
2018-01-20T13:06:59.076Z,12.85
2018-01-20T13:09:26.501Z,15.35
2018-01-20T13:11:53.921Z,10.85
2018-01-20T13:14:21.344Z,11.50
2018-01-20T13:16:48.769Z,3.12
2018-01-20T13:19:16.224Z,12.88
2018-01-20T13:21:43.874Z,7.05
2018-01-20T13:24:11.486Z,4.55
2018-01-20T13:26:39.037Z,6.72
2018-01-20T13:29:06.500Z,3.83
2018-01-20T13:31:34.260Z,8.15
2018-01-20T13:34:01.900Z,4.70
2018-01-20T13:36:29.489Z,8.93
2018-01-20T13:38:57.130Z,10.98
2018-01-20T13:41:24.608Z,6.07
2018-01-20T13:43:52.054Z,7.45
2018-01-20T13:46:19.625Z,3.40
2018-01-20T13:48:47.043Z,6.78
2018-01-20T13:51:14.468Z,10.48
2018-01-20T13:53:41.893Z,4.18
2018-01-20T13:56:09.352Z,2.30
2018-01-20T13:58:36.813Z,9.10
2018-01-20T14:01:04.368Z,2.58
2018-01-20T14:03:31.793Z,1.95
2018-01-20T14:05:59.291Z,5.80
2018-01-20T14:08:26.917Z,3.65
2018-01-20T14:10:54.345Z,2.90
2018-01-20T14:13:21.866Z,6.93
2018-01-20T14:15:49.321Z,3.30
2018-01-20T14:18:16.820Z,3.72
2018-01-20T14:20:44.237Z,2.78
2018-01-20T14:23:11.709Z,4.75
2018-01-20T14:25:39.259Z,5.07
2018-01-20T14:28:06.718Z,2.75
2018-01-20T14:30:34.141Z,8.98
2018-01-20T14:33:01.572Z,8.10
2018-01-20T14:35:29.088Z,3.80
2018-01-20T14:37:56.553Z,47.65
2018-01-20T14:40:24.313Z,2.35
2018-01-20T14:42:51.964Z,8.60
2018-01-20T14:45:19.533Z,2.58
2018-01-20T14:47:47.165Z,8.70
2018-01-20T14:50:14.762Z,3.00
2018-01-20T14:52:42.219Z,4.55
2018-01-20T14:55:09.668Z,2.47
2018-01-20T14:57:37.092Z,3.10
2018-01-20T15:00:04.585Z,2.75
2018-01-20T15:02:32.008Z,3.12
2018-01-20T15:04:59.741Z,2.25
2018-01-20T15:07:27.166Z,2.37
2018-01-20T15:09:54.652Z,4.70
2018-01-20T15:12:23.110Z,2.08
2018-01-20T15:14:50.528Z,3.92
2018-01-20T15:17:17.949Z,2.72
2018-01-20T15:19:45.485Z,2.85
2018-01-20T15:22:13.250Z,4.00
2018-01-20T15:24:40.681Z,3.03
2018-01-20T15:27:08.110Z,2.80
2018-01-20T15:29:36.302Z,9.57
2018-01-20T15:32:04.000Z,3.80
2018-01-20T15:34:31.628Z,2.85
2018-01-20T15:36:59.222Z,3.33
2018-01-20T15:39:32.569Z,15.27
2018-01-20T15:42:00.199Z,4.95
2018-01-20T15:44:27.630Z,3.40
2018-01-20T15:46:55.092Z,5.80
2018-01-20T15:49:22.557Z,3.95
2018-01-20T15:51:50.009Z,13.15
2018-01-20T15:54:17.568Z,4.22
2018-01-20T15:56:45.041Z,7.85
2018-01-20T15:59:12.565Z,13.80
2018-01-20T16:01:40.117Z,6.75
2018-01-20T16:04:07.713Z,7.55
2018-01-20T16:06:35.341Z,6.72
2018-01-20T16:09:02.833Z,5.07
2018-01-20T16:11:30.285Z,6.85
2018-01-20T16:13:57.765Z,15.85
2018-01-20T16:16:25.301Z,11.70
2018-01-20T16:18:52.733Z,10.40
2018-01-20T16:21:20.153Z,5.85
2018-01-20T16:23:47.577Z,5.07
2018-01-20T16:26:15.005Z,11.80
2018-01-20T16:28:42.460Z,17.50
2018-01-20T16:31:09.877Z,6.87
2018-01-20T16:33:37.417Z,5.50
2018-01-20T16:36:04.964Z,4.00
2018-01-20T16:38:32.429Z,25.37
2018-01-20T16:41:00.061Z,36.90
2018-01-20T16:43:27.649Z,36.55
2018-01-20T16:45:55.081Z,34.42
2018-01-20T16:48:22.569Z,18.25
2018-01-20T16:50:50.197Z,17.77
2018-01-20T16:53:17.705Z,8.05
2018-01-20T16:55:45.245Z,15.90
2018-01-20T16:58:12.893Z,6.70
2018-01-20T17:00:40.429Z,6.95
2018-01-20T17:03:07.865Z,7.30
2018-01-20T17:05:35.291Z,6.22
2018-01-20T17:08:02.916Z,14.52
2018-01-20T17:10:30.349Z,5.75
2018-01-20T17:12:58.050Z,12.43
2018-01-20T17:15:25.477Z,22.77
2018-01-20T17:17:53.670Z,10.90
2018-01-20T17:20:21.357Z,6.32
2018-01-20T17:22:48.777Z,7.22
2018-01-20T17:25:16.197Z,7.57
2018-01-20T17:27:43.746Z,4.85
2018-01-20T17:30:11.189Z,6.95
2018-01-20T17:32:38.622Z,8.65
2018-01-20T17:35:06.042Z,8.55
2018-01-20T17:37:33.571Z,6.25
2018-01-20T17:40:00.989Z,7.72
2018-01-20T17:42:28.483Z,11.15
2018-01-20T17:44:55.941Z,10.70
2018-01-20T17:47:23.577Z,9.55
2018-01-20T17:49:51.042Z,11.18
2018-01-20T17:52:18.616Z,6.97
2018-01-20T17:54:46.046Z,14.55
2018-01-20T17:57:13.536Z,9.18
2018-01-20T17:59:41.001Z,23.10
2018-01-20T18:02:08.439Z,45.03
2018-01-20T18:04:36.630Z,48.33
2018-01-20T18:07:04.302Z,42.60
2018-01-20T18:09:31.749Z,32.08
2018-01-20T18:11:59.168Z,21.98
2018-01-20T18:14:26.669Z,13.60
2018-01-20T18:16:54.126Z,12.77
2018-01-20T18:19:21.569Z,32.00
2018-01-20T18:21:49.001Z,69.45
2018-01-20T18:24:16.500Z,77.10
2018-01-20T18:26:44.033Z,56.83
2018-01-20T18:29:11.725Z,50.72
2018-01-20T18:31:39.358Z,30.95
2018-01-20T18:34:06.858Z,23.52
2018-01-20T18:36:34.393Z,18.33
2018-01-20T18:39:01.824Z,16.58
2018-01-20T18:41:29.298Z,23.65
2018-01-20T18:43:56.761Z,30.17
2018-01-20T18:46:24.238Z,39.15
2018-01-20T18:48:51.883Z,32.88
2018-01-20T18:51:19.458Z,15.32
2018-01-20T18:53:47.084Z,15.77
2018-01-20T18:56:14.678Z,11.48
2018-01-20T18:58:42.110Z,14.55
2018-01-20T19:01:09.543Z,17.50
2018-01-20T19:03:36.973Z,15.75
2018-01-20T19:06:04.406Z,15.43
2018-01-20T19:08:31.869Z,17.02
2018-01-20T19:10:59.326Z,27.77
2018-01-20T19:13:26.754Z,30.17
2018-01-20T19:15:54.342Z,17.65
2018-01-20T19:18:21.796Z,16.83
2018-01-20T19:20:49.429Z,20.77
2018-01-20T19:23:16.896Z,25.00
2018-01-20T19:25:44.477Z,26.30
2018-01-20T19:28:12.256Z,23.10
2018-01-20T19:30:39.709Z,26.30
2018-01-20T19:33:07.173Z,31.10
2018-01-20T19:35:34.802Z,15.60
2018-01-20T19:38:02.252Z,15.88
2018-01-20T19:40:29.844Z,24.30
2018-01-20T19:42:57.296Z,29.02
2018-01-20T19:45:24.736Z,23.42
2018-01-20T19:47:52.217Z,28.67
2018-01-20T19:50:19.866Z,15.63
2018-01-20T19:52:47.375Z,17.67
2018-01-20T19:55:14.813Z,20.67
2018-01-20T19:57:42.348Z,20.77
2018-01-20T20:00:10.125Z,23.17
2018-01-20T20:02:37.757Z,19.67
2018-01-20T20:05:05.245Z,19.65
2018-01-20T20:07:32.761Z,24.63
2018-01-20T20:10:00.193Z,25.40
2018-01-20T20:12:27.622Z,20.75
2018-01-20T20:14:55.078Z,20.37
2018-01-20T20:17:22.536Z,21.70
2018-01-20T20:19:49.992Z,18.80
2018-01-20T20:22:17.552Z,20.15
2018-01-20T20:24:44.981Z,21.20
2018-01-20T20:27:12.410Z,23.83
2018-01-20T20:29:39.832Z,30.67
2018-01-20T20:32:07.376Z,32.15
2018-01-20T20:34:34.797Z,25.90
2018-01-20T20:37:02.297Z,28.67
2018-01-20T20:39:29.724Z,19.02
2018-01-20T20:41:57.149Z,24.63
2018-01-20T20:44:24.586Z,32.25
2018-01-20T20:46:52.026Z,35.45
2018-01-20T20:49:19.458Z,30.60
2018-01-20T20:51:46.890Z,32.42
2018-01-20T20:54:15.427Z,29.58
2018-01-20T20:56:43.060Z,35.38
2018-01-20T20:59:10.652Z,31.77
2018-01-20T21:01:38.110Z,30.33
2018-01-20T21:04:05.544Z,29.87
2018-01-20T21:06:32.972Z,24.58
2018-01-20T21:09:00.481Z,19.65
2018-01-20T21:11:27.942Z,24.45
2018-01-20T21:13:55.574Z,20.70
2018-01-20T21:16:23.038Z,24.50
2018-01-20T21:18:50.621Z,22.73
2018-01-20T21:21:18.061Z,25.27
2018-01-20T21:23:45.490Z,19.92
2018-01-20T21:26:12.917Z,20.33
2018-01-20T21:28:40.451Z,22.20
2018-01-20T21:31:07.905Z,24.02
2018-01-20T21:33:35.542Z,19.83
2018-01-20T21:36:03.133Z,30.08
2018-01-20T21:38:30.590Z,27.50
2018-01-20T21:40:58.017Z,21.60
2018-01-20T21:43:25.450Z,24.92
2018-01-20T21:45:52.878Z,22.37
2018-01-20T21:48:20.421Z,23.80
2018-01-20T21:50:47.885Z,30.35
2018-01-20T21:53:15.508Z,26.95
2018-01-20T21:55:43.096Z,32.30
2018-01-20T21:58:10.527Z,28.65
2018-01-20T22:00:38.325Z,30.67
2018-01-20T22:03:05.960Z,41.08
2018-01-20T22:05:33.449Z,33.60
2018-01-20T22:08:01.009Z,44.17
2018-01-20T22:10:42.490Z,44.38
2018-01-20T22:13:11.592Z,45.47
2018-01-20T22:15:39.041Z,37.95
2018-01-20T22:18:06.748Z,43.10
2018-01-20T22:20:34.181Z,45.20
2018-01-20T22:23:01.611Z,45.17
2018-01-20T22:25:29.036Z,47.85
2018-01-20T22:27:57.446Z,54.75
2018-01-20T22:30:24.868Z,43.92
2018-01-20T22:32:53.079Z,42.40
2018-01-20T22:35:20.506Z,45.78
2018-01-20T22:37:48.008Z,33.13
2018-01-20T22:40:15.645Z,35.80
2018-01-20T22:42:43.117Z,40.38
2018-01-20T22:45:10.689Z,41.65
2018-01-20T22:47:38.448Z,43.20
2018-01-20T22:50:05.914Z,42.88
2018-01-20T22:52:33.352Z,41.58
2018-01-20T22:55:00.780Z,46.20
2018-01-20T22:57:28.228Z,46.40
2018-01-20T22:59:55.658Z,53.47
2018-01-20T23:02:23.106Z,44.72
2018-01-20T23:04:50.562Z,39.15
2018-01-20T23:07:18.025Z,44.17
2018-01-20T23:09:45.460Z,34.70
2018-01-20T23:12:13.043Z,40.17
2018-01-20T23:14:40.494Z,41.55
2018-01-20T23:17:08.257Z,35.55
2018-01-20T23:19:35.690Z,37.40
2018-01-20T23:22:03.121Z,42.58
2018-01-20T23:24:31.453Z,34.28
2018-01-20T23:26:59.009Z,33.72
2018-01-20T23:29:26.441Z,54.47
2018-01-20T23:31:53.864Z,40.63
2018-01-20T23:34:22.064Z,36.40
2018-01-20T23:36:49.628Z,30.58
2018-01-20T23:39:17.125Z,38.25
2018-01-20T23:41:44.549Z,41.67
2018-01-20T23:44:12.040Z,49.72
2018-01-20T23:46:39.469Z,42.70
2018-01-20T23:49:07.148Z,37.00
2018-01-20T23:51:34.817Z,35.17
2018-01-20T23:54:02.466Z,43.15
2018-01-20T23:56:29.945Z,39.13
2018-01-20T23:58:57.414Z,49.17
